Terminal Aerodrome Forecast
Issued by NWS

Home | Current Version | Previous Version | Text Only | Print | Product List | Glossary On
Versions: 1 2 3 4 5 6 7 8 9 10 11 12 13 14 15 16
000
FTAK31 PAJN 301700
TAFAGY
TAF
PAGY 301739Z 3018/3118 04020G30KT P6SM BKN020 OVC060
     FM302000 04018G26KT P6SM SCT030 BKN060
     FM310000 04015G25KT P6SM SCT060
     FM310900 04022G32KT P6SM SKC
      AMD LTD TO CLD VIS AND WIND=

USA.gov is the U.S. government's official web portal to all federal, state and local government web resources and services.